Time;durP1;ratioP1;P1;durP2;ratioP2;P2;SDS_P1;SDS_P2;PMS_P1;PMS_P2;Temp;Humidity;BMP_temperature;BMP_pressure;BME280_temperature;BME280_humidity;BME280_pressure;Samples;Min_cycle;Max_cycle;Signal;HPM_P1;HPM_P2
2022/04/28 00:02:11;;;;;;;7.88;5.10;;;;;;;;;;5050816;28;20048;-77
2022/04/28 00:04:38;;;;;;;7.78;4.72;;;;;;;;;;5048133;28;20041;-77
2022/04/28 00:07:05;;;;;;;7.60;4.45;;;;;;;;;;5047277;28;20049;-77
2022/04/28 00:09:32;;;;;;;6.93;3.85;;;;;;;;;;5041451;28;20061;-77
2022/04/28 00:11:58;;;;;;;7.88;4.28;;;;;;;;;;5048497;28;20041;-77
2022/04/28 00:14:25;;;;;;;8.35;4.80;;;;;;;;;;5049717;28;20590;-78
2022/04/28 00:16:53;;;;;;;7.47;4.43;;;;;;;;;;5047310;28;20110;-77
2022/04/28 00:19:20;;;;;;;7.80;4.43;;;;;;;;;;5049634;28;20091;-77
2022/04/28 00:21:47;;;;;;;7.53;4.63;;;;;;;;;;5043637;28;20123;-77
2022/04/28 00:24:13;;;;;;;6.35;4.10;;;;;;;;;;5050390;28;20118;-78
2022/04/28 00:26:40;;;;;;;8.32;4.88;;;;;;;;;;5036959;28;20266;-78
2022/04/28 00:29:06;;;;;;;7.55;4.70;;;;;;;;;;5046131;28;20551;-77
2022/04/28 00:31:33;;;;;;;9.63;5.88;;;;;;;;;;5048347;28;20037;-78
2022/04/28 00:34:01;;;;;;;7.88;4.85;;;;;;;;;;5037086;28;20053;-77
2022/04/28 00:36:28;;;;;;;7.10;4.40;;;;;;;;;;5034307;28;20539;-77
2022/04/28 00:38:54;;;;;;;7.72;4.72;;;;;;;;;;5042124;28;20073;-77
2022/04/28 00:41:21;;;;;;;8.05;4.68;;;;;;;;;;5046503;28;20042;-78
2022/04/28 00:43:48;;;;;;;8.85;5.15;;;;;;;;;;5052512;28;20544;-77
2022/04/28 00:46:15;;;;;;;8.30;4.68;;;;;;;;;;5045721;28;20087;-77
2022/04/28 00:51:28;;;;;;;7.95;4.57;;;;;;;;;;5049066;28;20130;-77
2022/04/28 00:53:55;;;;;;;8.35;4.53;;;;;;;;;;5047414;28;20587;-78
2022/04/28 00:56:22;;;;;;;8.73;5.35;;;;;;;;;;5044178;28;20040;-77
2022/04/28 00:58:49;;;;;;;11.88;6.00;;;;;;;;;;5041675;28;20087;-78
2022/04/28 01:01:16;;;;;;;9.02;5.03;;;;;;;;;;5050519;28;20040;-77
2022/04/28 01:03:45;;;;;;;8.68;5.28;;;;;;;;;;5052563;28;20485;-77
2022/04/28 01:06:12;;;;;;;9.50;4.97;;;;;;;;;;5051165;28;20040;-78
2022/04/28 01:08:40;;;;;;;17.55;5.75;;;;;;;;;;5047494;28;20154;-79
2022/04/28 01:11:07;;;;;;;8.23;4.35;;;;;;;;;;5047906;28;20137;-77
2022/04/28 01:13:34;;;;;;;10.32;5.03;;;;;;;;;;5045193;28;20049;-78
2022/04/28 01:16:01;;;;;;;7.38;4.30;;;;;;;;;;5049171;28;20118;-77
2022/04/28 01:18:27;;;;;;;10.05;4.88;;;;;;;;;;5039812;28;20044;-77
2022/04/28 01:20:55;;;;;;;7.18;4.07;;;;;;;;;;5038626;28;20077;-77
2022/04/28 01:23:23;;;;;;;8.63;4.95;;;;;;;;;;5050767;28;20037;-77
2022/04/28 01:25:50;;;;;;;6.15;3.45;;;;;;;;;;5051333;28;20037;-77
2022/04/28 01:28:16;;;;;;;5.63;3.83;;;;;;;;;;5039038;28;20049;-77
2022/04/28 01:30:43;;;;;;;7.55;4.75;;;;;;;;;;5049828;28;20495;-77
2022/04/28 01:33:09;;;;;;;8.52;4.82;;;;;;;;;;5048505;28;20083;-77
2022/04/28 01:35:36;;;;;;;8.05;4.57;;;;;;;;;;5049591;28;20174;-78
2022/04/28 01:38:02;;;;;;;8.68;5.32;;;;;;;;;;5052325;28;20069;-77
2022/04/28 01:40:31;;;;;;;10.30;5.93;;;;;;;;;;5051161;28;20065;-77
2022/04/28 01:42:57;;;;;;;8.30;4.90;;;;;;;;;;5050042;28;20481;-77
2022/04/28 01:45:24;;;;;;;10.93;6.07;;;;;;;;;;5049105;28;20103;-77
2022/04/28 01:47:50;;;;;;;12.68;6.82;;;;;;;;;;5050877;28;20158;-78
2022/04/28 01:50:17;;;;;;;11.20;6.45;;;;;;;;;;5041935;28;20746;-77
2022/04/28 01:55:30;;;;;;;9.40;5.95;;;;;;;;;;5051940;28;20175;-77
2022/04/28 01:57:58;;;;;;;10.68;6.22;;;;;;;;;;5046926;28;20041;-79
2022/04/28 02:00:25;;;;;;;12.70;5.88;;;;;;;;;;5049503;28;20083;-77
2022/04/28 02:02:52;;;;;;;11.43;6.63;;;;;;;;;;5050646;28;20476;-77
2022/04/28 02:05:19;;;;;;;10.95;5.97;;;;;;;;;;5048925;28;20079;-77
2022/04/28 02:07:45;;;;;;;9.82;5.95;;;;;;;;;;5050849;28;20613;-77
2022/04/28 02:10:12;;;;;;;11.43;6.30;;;;;;;;;;5050562;28;20075;-77
2022/04/28 02:12:39;;;;;;;10.60;6.15;;;;;;;;;;5041168;28;20076;-77
2022/04/28 02:15:08;;;;;;;12.10;6.32;;;;;;;;;;5048657;28;20045;-79
2022/04/28 02:17:36;;;;;;;10.13;5.40;;;;;;;;;;5050158;28;20085;-78
2022/04/28 02:20:04;;;;;;;9.77;5.75;;;;;;;;;;5042917;28;20077;-78
2022/04/28 02:22:31;;;;;;;11.52;6.15;;;;;;;;;;5048899;28;20044;-77
2022/04/28 02:24:57;;;;;;;9.27;4.93;;;;;;;;;;5050005;28;20057;-77
2022/04/28 02:27:24;;;;;;;8.88;4.93;;;;;;;;;;5048673;28;20143;-77
2022/04/28 02:29:51;;;;;;;9.48;5.80;;;;;;;;;;5049154;28;20040;-77
2022/04/28 02:32:19;;;;;;;7.53;4.72;;;;;;;;;;5049438;28;20080;-78
2022/04/28 02:34:45;;;;;;;9.13;5.30;;;;;;;;;;5044248;28;20075;-77
2022/04/28 02:37:13;;;;;;;8.23;4.93;;;;;;;;;;5049360;28;20071;-77
2022/04/28 02:39:40;;;;;;;8.88;4.85;;;;;;;;;;5049511;28;20037;-77
2022/04/28 02:42:07;;;;;;;10.90;6.28;;;;;;;;;;5049902;28;20140;-78
2022/04/28 02:44:34;;;;;;;11.55;6.88;;;;;;;;;;5048276;28;20075;-78
2022/04/28 02:47:00;;;;;;;8.77;5.03;;;;;;;;;;5049031;28;20115;-77
2022/04/28 02:49:28;;;;;;;9.00;5.10;;;;;;;;;;5047234;28;20080;-77
2022/04/28 02:51:54;;;;;;;8.35;5.28;;;;;;;;;;5039563;28;20057;-77
2022/04/28 02:54:21;;;;;;;9.57;5.75;;;;;;;;;;5038659;28;20144;-78
2022/04/28 02:56:48;;;;;;;11.07;5.68;;;;;;;;;;5043628;28;20064;-77
2022/04/28 02:59:14;;;;;;;10.23;5.43;;;;;;;;;;5050603;28;20084;-77
2022/04/28 03:01:41;;;;;;;9.68;5.97;;;;;;;;;;5045639;28;20472;-78
2022/04/28 03:04:07;;;;;;;10.57;5.25;;;;;;;;;;5040787;28;20081;-80
2022/04/28 03:12:04;;;;;;;8.77;5.15;;;;;;;;;;5045216;28;20555;-78
2022/04/28 03:14:31;;;;;;;9.63;5.60;;;;;;;;;;5046232;28;20094;-77
2022/04/28 03:16:58;;;;;;;8.25;4.97;;;;;;;;;;5040033;28;20895;-77
2022/04/28 03:19:24;;;;;;;8.35;4.88;;;;;;;;;;5044851;28;20124;-78
2022/04/28 03:21:52;;;;;;;10.52;5.85;;;;;;;;;;5041422;28;20486;-78
2022/04/28 03:24:19;;;;;;;9.93;5.70;;;;;;;;;;5046905;28;20068;-76
2022/04/28 03:26:45;;;;;;;8.27;4.70;;;;;;;;;;5034385;28;20084;-77
2022/04/28 03:29:12;;;;;;;8.13;5.38;;;;;;;;;;5035550;28;20061;-76
2022/04/28 03:31:38;;;;;;;9.00;4.95;;;;;;;;;;5043182;28;20540;-76
2022/04/28 03:34:05;;;;;;;10.00;5.40;;;;;;;;;;5047434;28;20076;-78
2022/04/28 03:39:17;;;;;;;10.73;6.05;;;;;;;;;;5043358;28;20634;-78
2022/04/28 03:41:44;;;;;;;9.10;5.40;;;;;;;;;;5048038;28;20119;-77
2022/04/28 03:44:10;;;;;;;10.80;5.13;;;;;;;;;;5046448;28;20049;-78
2022/04/28 03:46:37;;;;;;;10.65;6.28;;;;;;;;;;5041237;28;20079;-76
2022/04/28 03:49:04;;;;;;;9.63;5.70;;;;;;;;;;5046637;28;20052;-77
2022/04/28 03:51:30;;;;;;;9.90;5.95;;;;;;;;;;5047377;28;20525;-77
2022/04/28 03:54:00;;;;;;;11.05;5.63;;;;;;;;;;5036457;28;20659;-78
2022/04/28 03:56:29;;;;;;;10.40;5.03;;;;;;;;;;5036804;28;20080;-78
2022/04/28 03:58:56;;;;;;;9.00;5.15;;;;;;;;;;5046291;28;20637;-77
2022/04/28 04:01:23;;;;;;;9.93;5.82;;;;;;;;;;5046225;28;20148;-78
2022/04/28 04:03:49;;;;;;;10.82;5.70;;;;;;;;;;5046270;28;20073;-78
2022/04/28 04:06:16;;;;;;;9.40;5.47;;;;;;;;;;5046235;28;20069;-78
2022/04/28 04:08:42;;;;;;;11.13;5.80;;;;;;;;;;5048399;28;20072;-78
2022/04/28 04:11:09;;;;;;;11.48;6.25;;;;;;;;;;5032899;28;20069;-79
2022/04/28 04:13:37;;;;;;;10.90;5.80;;;;;;;;;;5047791;28;20038;-79
2022/04/28 04:16:04;;;;;;;11.55;5.57;;;;;;;;;;5045377;28;20060;-78
2022/04/28 04:18:30;;;;;;;11.38;5.68;;;;;;;;;;5051232;28;20120;-79
2022/04/28 04:20:57;;;;;;;10.38;5.82;;;;;;;;;;5052080;28;20072;-78
2022/04/28 04:23:24;;;;;;;13.88;7.15;;;;;;;;;;5050637;28;20130;-77
2022/04/28 04:25:50;;;;;;;9.88;5.25;;;;;;;;;;5053406;28;20086;-78
2022/04/28 04:28:17;;;;;;;8.40;5.32;;;;;;;;;;5051409;28;20068;-78
2022/04/28 04:33:29;;;;;;;10.85;5.55;;;;;;;;;;5048094;28;20119;-78
2022/04/28 04:35:55;;;;;;;12.98;6.82;;;;;;;;;;5052040;28;20436;-79
2022/04/28 04:38:22;;;;;;;12.30;7.35;;;;;;;;;;5051796;28;20072;-78
2022/04/28 04:40:48;;;;;;;12.80;6.88;;;;;;;;;;5051377;28;20077;-78
2022/04/28 04:43:15;;;;;;;14.60;7.25;;;;;;;;;;5052009;28;20103;-78
2022/04/28 04:45:43;;;;;;;10.48;6.57;;;;;;;;;;5051002;28;20034;-78
2022/04/28 04:48:12;;;;;;;10.48;5.32;;;;;;;;;;5050242;28;20132;-79
2022/04/28 04:50:39;;;;;;;17.38;8.32;;;;;;;;;;5052217;28;20077;-78
2022/04/28 04:53:06;;;;;;;14.80;7.50;;;;;;;;;;5051720;28;20731;-78
2022/04/28 04:55:32;;;;;;;34.28;19.75;;;;;;;;;;5033933;28;20073;-76
2022/04/28 04:57:59;;;;;;;25.90;13.02;;;;;;;;;;5051855;28;20076;-79
2022/04/28 05:00:26;;;;;;;14.88;8.98;;;;;;;;;;5048284;28;20138;-78
2022/04/28 05:02:52;;;;;;;15.13;8.90;;;;;;;;;;5051162;28;20060;-78
2022/04/28 05:05:20;;;;;;;16.63;9.13;;;;;;;;;;5048477;28;20076;-79
2022/04/28 05:07:47;;;;;;;16.48;8.50;;;;;;;;;;5048939;28;20085;-78
2022/04/28 05:10:13;;;;;;;14.90;7.93;;;;;;;;;;5048598;28;20144;-79
2022/04/28 05:12:40;;;;;;;14.75;7.60;;;;;;;;;;5051091;28;20068;-76
2022/04/28 05:15:07;;;;;;;14.85;8.55;;;;;;;;;;5049322;28;20140;-78
2022/04/28 05:17:33;;;;;;;15.32;7.82;;;;;;;;;;5047628;28;20152;-78
2022/04/28 05:20:00;;;;;;;17.92;9.07;;;;;;;;;;5049827;28;20128;-78
2022/04/28 05:22:28;;;;;;;18.98;9.45;;;;;;;;;;5047085;28;20052;-78
2022/04/28 05:24:55;;;;;;;16.25;9.73;;;;;;;;;;5050720;28;20072;-78
2022/04/28 05:27:21;;;;;;;17.10;9.63;;;;;;;;;;5047573;28;20090;-78
2022/04/28 05:29:48;;;;;;;16.83;9.50;;;;;;;;;;5049200;28;20077;-79
2022/04/28 05:32:14;;;;;;;15.80;8.93;;;;;;;;;;5048898;28;20449;-78
2022/04/28 05:34:41;;;;;;;17.38;9.13;;;;;;;;;;5050457;28;20072;-78
2022/04/28 05:37:07;;;;;;;20.98;8.75;;;;;;;;;;5045576;28;20124;-78
2022/04/28 05:39:35;;;;;;;17.27;8.55;;;;;;;;;;5051764;28;20083;-78
2022/04/28 05:42:02;;;;;;;14.85;8.07;;;;;;;;;;5053541;28;20121;-76
2022/04/28 05:47:14;;;;;;;14.95;8.23;;;;;;;;;;5050154;28;20496;-78
2022/04/28 05:49:41;;;;;;;15.25;9.35;;;;;;;;;;5052079;28;20045;-79
2022/04/28 05:52:08;;;;;;;15.65;8.25;;;;;;;;;;5050542;28;20048;-77
2022/04/28 05:54:36;;;;;;;19.17;9.48;;;;;;;;;;5045992;28;20049;-77
2022/04/28 05:57:03;;;;;;;18.25;9.88;;;;;;;;;;5047070;28;20453;-79
2022/04/28 05:59:30;;;;;;;15.23;9.70;;;;;;;;;;5050656;28;20539;-77
2022/04/28 06:01:56;;;;;;;16.52;9.82;;;;;;;;;;5050540;28;20084;-76
2022/04/28 06:04:23;;;;;;;15.30;9.15;;;;;;;;;;5049270;28;20047;-77
2022/04/28 06:06:49;;;;;;;15.90;9.50;;;;;;;;;;5047493;28;20079;-78
2022/04/28 06:09:16;;;;;;;15.05;9.88;;;;;;;;;;5037960;28;20081;-78
2022/04/28 06:11:44;;;;;;;18.55;10.40;;;;;;;;;;5030118;28;20061;-78
2022/04/28 06:14:11;;;;;;;20.20;10.95;;;;;;;;;;5045452;28;20073;-77
2022/04/28 06:16:37;;;;;;;17.35;10.38;;;;;;;;;;5045660;28;20108;-77
2022/04/28 06:19:04;;;;;;;18.83;11.73;;;;;;;;;;5046842;28;20073;-77
2022/04/28 06:21:30;;;;;;;17.05;11.30;;;;;;;;;;5046813;28;20496;-77
2022/04/28 06:23:57;;;;;;;16.83;10.98;;;;;;;;;;5047832;28;20080;-78
2022/04/28 06:26:24;;;;;;;17.67;10.48;;;;;;;;;;5044958;28;20073;-78
2022/04/28 06:28:51;;;;;;;20.10;11.07;;;;;;;;;;5043569;28;20075;-77
2022/04/28 06:31:18;;;;;;;15.52;10.65;;;;;;;;;;5045742;28;20060;-77
2022/04/28 06:33:44;;;;;;;16.70;10.93;;;;;;;;;;5046831;28;20129;-78
2022/04/28 06:36:11;;;;;;;17.73;10.85;;;;;;;;;;5045473;28;20550;-78
2022/04/28 06:38:37;;;;;;;16.75;9.88;;;;;;;;;;5045277;28;20130;-77
2022/04/28 06:41:04;;;;;;;15.43;9.10;;;;;;;;;;5045678;28;20117;-78
2022/04/28 06:43:32;;;;;;;14.23;10.32;;;;;;;;;;5045133;28;20071;-77
2022/04/28 06:46:15;;;;;;;16.75;9.82;;;;;;;;;;5044682;28;20037;-77
2022/04/28 06:48:42;;;;;;;14.93;9.63;;;;;;;;;;5045766;28;20091;-78
2022/04/28 06:51:09;;;;;;;14.43;9.32;;;;;;;;;;5044749;28;20084;-77
2022/04/28 06:53:35;;;;;;;13.68;8.88;;;;;;;;;;5043175;28;20114;-77
2022/04/28 06:56:02;;;;;;;13.10;8.88;;;;;;;;;;5043173;28;20136;-77
2022/04/28 06:58:28;;;;;;;12.98;8.73;;;;;;;;;;5045936;28;20517;-77
2022/04/28 07:00:55;;;;;;;13.45;8.80;;;;;;;;;;5043004;28;20128;-78
2022/04/28 07:03:22;;;;;;;15.27;9.48;;;;;;;;;;5044110;28;20068;-77
2022/04/28 07:05:49;;;;;;;11.90;7.82;;;;;;;;;;5043454;28;20068;-78
2022/04/28 07:08:16;;;;;;;9.45;6.70;;;;;;;;;;5040477;28;20122;-77
2022/04/28 07:10:42;;;;;;;14.30;8.52;;;;;;;;;;5043884;28;20428;-77
2022/04/28 07:13:09;;;;;;;10.95;7.38;;;;;;;;;;5041715;28;20085;-77
2022/04/28 07:15:36;;;;;;;13.38;8.00;;;;;;;;;;5042805;28;20076;-77
2022/04/28 07:18:03;;;;;;;11.82;7.30;;;;;;;;;;5045377;28;20053;-77
2022/04/28 07:20:32;;;;;;;9.30;6.85;;;;;;;;;;5043510;28;20115;-78
2022/04/28 07:22:59;;;;;;;13.73;8.70;;;;;;;;;;5044860;28;20595;-77
2022/04/28 07:25:26;;;;;;;11.73;7.28;;;;;;;;;;5044221;28;20111;-78
2022/04/28 07:27:53;;;;;;;12.30;7.25;;;;;;;;;;5043159;28;20146;-77
2022/04/28 07:30:20;;;;;;;13.35;7.60;;;;;;;;;;5042351;28;20052;-78
2022/04/28 07:32:47;;;;;;;10.82;6.63;;;;;;;;;;5044209;28;20084;-77
2022/04/28 07:35:14;;;;;;;10.15;7.20;;;;;;;;;;5039050;28;20724;-80
2022/04/28 07:37:42;;;;;;;10.82;6.78;;;;;;;;;;5045884;28;20156;-77
2022/04/28 07:40:10;;;;;;;9.52;6.35;;;;;;;;;;5044697;28;20121;-77
2022/04/28 07:42:36;;;;;;;9.65;6.55;;;;;;;;;;5042454;28;20791;-77
2022/04/28 07:45:04;;;;;;;14.10;6.38;;;;;;;;;;5042435;28;20509;-78
2022/04/28 07:47:31;;;;;;;9.95;6.30;;;;;;;;;;5041207;28;20529;-77
2022/04/28 07:49:57;;;;;;;9.05;6.07;;;;;;;;;;5041375;28;20107;-77
2022/04/28 07:52:24;;;;;;;7.95;5.55;;;;;;;;;;5041955;28;20588;-77
2022/04/28 07:54:52;;;;;;;9.45;5.82;;;;;;;;;;5043023;28;20076;-77
2022/04/28 07:57:22;;;;;;;8.50;5.68;;;;;;;;;;5044276;28;20072;-79
2022/04/28 07:59:48;;;;;;;9.88;5.75;;;;;;;;;;5045590;28;20519;-77
2022/04/28 08:02:15;;;;;;;9.63;6.88;;;;;;;;;;5042687;28;20068;-77
2022/04/28 08:04:42;;;;;;;8.63;6.30;;;;;;;;;;5043002;28;20659;-77
2022/04/28 08:07:08;;;;;;;10.02;5.10;;;;;;;;;;5043081;28;20138;-77
2022/04/28 08:09:35;;;;;;;7.45;4.97;;;;;;;;;;5043018;28;20092;-77
2022/04/28 08:12:03;;;;;;;7.70;5.20;;;;;;;;;;5043941;28;20080;-78
2022/04/28 08:14:30;;;;;;;8.82;5.82;;;;;;;;;;5043111;28;20140;-77
2022/04/28 08:16:57;;;;;;;8.43;6.03;;;;;;;;;;5041175;28;20325;-77
2022/04/28 08:19:23;;;;;;;7.05;4.97;;;;;;;;;;5039537;28;20041;-78
2022/04/28 08:21:50;;;;;;;8.13;5.47;;;;;;;;;;5043686;28;20071;-78
2022/04/28 08:24:17;;;;;;;22.08;5.47;;;;;;;;;;5044862;28;20141;-77
2022/04/28 08:26:44;;;;;;;6.60;4.65;;;;;;;;;;5045048;28;20144;-79
2022/04/28 08:29:12;;;;;;;8.50;4.45;;;;;;;;;;5042939;28;20065;-77
2022/04/28 18:11:53;;;;;;;6.22;2.80;;;;;;;;;;5085673;27;20404;-78
2022/04/28 18:14:20;;;;;;;5.40;2.70;;;;;;;;;;5080696;28;20045;-78
2022/04/28 18:16:52;;;;;;;3.97;2.60;;;;;;;;;;5077635;28;20045;-76
2022/04/28 18:19:19;;;;;;;5.53;3.20;;;;;;;;;;5075367;28;20054;-76
2022/04/28 18:21:45;;;;;;;6.35;3.45;;;;;;;;;;5079276;28;20106;-78
2022/04/28 18:24:12;;;;;;;4.82;2.72;;;;;;;;;;5079617;28;20040;-77
2022/04/28 18:26:43;;;;;;;5.28;2.80;;;;;;;;;;5077684;28;20040;-78
2022/04/28 18:29:12;;;;;;;4.30;2.85;;;;;;;;;;5072059;28;20079;-75
2022/04/28 18:31:39;;;;;;;5.95;2.97;;;;;;;;;;5080578;28;20048;-76
2022/04/28 18:34:06;;;;;;;5.32;3.05;;;;;;;;;;5077334;28;20091;-76
2022/04/28 18:44:46;;;;;;;4.72;2.80;;;;;;;;;;5073976;28;20068;-76
2022/04/28 18:47:13;;;;;;;5.28;2.83;;;;;;;;;;5075163;28;20044;-76
2022/04/28 18:49:42;;;;;;;4.15;2.65;;;;;;;;;;5079212;28;20052;-76
2022/04/28 18:52:09;;;;;;;3.65;2.33;;;;;;;;;;5075902;28;20036;-78
2022/04/28 18:54:37;;;;;;;5.68;2.42;;;;;;;;;;5077937;28;20520;-78
2022/04/28 18:57:06;;;;;;;3.45;2.35;;;;;;;;;;5078012;28;20129;-76
2022/04/28 18:59:33;;;;;;;3.30;2.33;;;;;;;;;;5079115;28;20091;-76
2022/04/28 19:02:01;;;;;;;3.83;2.25;;;;;;;;;;5076207;28;20044;-76
2022/04/28 19:04:29;;;;;;;4.97;2.20;;;;;;;;;;5075389;28;20044;-77
2022/04/28 19:06:57;;;;;;;4.68;2.20;;;;;;;;;;5070183;28;20456;-76
2022/04/28 19:09:24;;;;;;;7.18;2.22;;;;;;;;;;5072961;28;20108;-76
2022/04/28 19:11:51;;;;;;;2.80;2.00;;;;;;;;;;5074574;28;20053;-77
2022/04/28 19:17:05;;;;;;;6.13;2.25;;;;;;;;;;5070738;28;20412;-76
2022/04/28 19:19:31;;;;;;;3.85;1.90;;;;;;;;;;5075075;28;20405;-76
2022/04/28 19:21:58;;;;;;;3.38;2.33;;;;;;;;;;5065571;28;20052;-76
2022/04/28 19:24:26;;;;;;;4.05;2.22;;;;;;;;;;5058714;28;20111;-76
2022/04/28 19:26:55;;;;;;;3.13;2.05;;;;;;;;;;5060464;28;20036;-76
2022/04/28 19:29:22;;;;;;;2.92;2.03;;;;;;;;;;5059394;28;20045;-78
2022/04/28 19:31:49;;;;;;;6.75;2.75;;;;;;;;;;5061119;28;20044;-76
2022/04/28 19:34:18;;;;;;;3.65;2.50;;;;;;;;;;5059032;28;20545;-78
2022/04/28 19:36:45;;;;;;;5.03;2.28;;;;;;;;;;5062634;28;20045;-76
2022/04/28 19:39:11;;;;;;;4.03;2.38;;;;;;;;;;5060379;28;20051;-77
2022/04/28 19:41:41;;;;;;;5.22;2.10;;;;;;;;;;5059714;28;20492;-77
2022/04/28 19:44:09;;;;;;;4.38;2.50;;;;;;;;;;5060579;28;20523;-76
2022/04/28 19:46:39;;;;;;;4.70;2.40;;;;;;;;;;5064491;28;20447;-78
2022/04/28 19:49:05;;;;;;;4.18;2.40;;;;;;;;;;5062478;28;20055;-77
2022/04/28 19:51:33;;;;;;;4.78;2.00;;;;;;;;;;5055805;28;20068;-76
2022/04/28 19:54:01;;;;;;;5.03;2.75;;;;;;;;;;5059423;28;20428;-77
2022/04/28 19:56:27;;;;;;;4.07;2.28;;;;;;;;;;5060535;28;20041;-77
2022/04/28 19:58:54;;;;;;;5.35;2.50;;;;;;;;;;5054391;28;20119;-77
2022/04/28 20:01:21;;;;;;;4.18;2.45;;;;;;;;;;5057044;28;20054;-77
2022/04/28 20:03:50;;;;;;;4.45;2.67;;;;;;;;;;5057442;28;20045;-77
2022/04/28 20:06:16;;;;;;;3.95;2.53;;;;;;;;;;5051541;28;20126;-77
2022/04/28 20:08:44;;;;;;;5.78;2.25;;;;;;;;;;5061592;28;20084;-77
2022/04/28 20:11:13;;;;;;;3.40;2.20;;;;;;;;;;5059753;28;20095;-78
2022/04/28 20:13:41;;;;;;;4.55;2.92;;;;;;;;;;5060061;28;20048;-77
2022/04/28 20:16:08;;;;;;;4.65;3.25;;;;;;;;;;5062938;28;20132;-77
2022/04/28 20:18:35;;;;;;;4.15;2.78;;;;;;;;;;5056912;28;20106;-77
2022/04/28 20:21:02;;;;;;;4.75;2.58;;;;;;;;;;5054391;28;20771;-77
2022/04/28 20:23:34;;;;;;;3.65;2.40;;;;;;;;;;5059422;28;20045;-76
2022/04/28 20:26:03;;;;;;;4.43;2.85;;;;;;;;;;5055559;28;20051;-76
2022/04/28 20:28:31;;;;;;;4.35;2.45;;;;;;;;;;5057308;28;20131;-77
2022/04/28 20:30:57;;;;;;;6.00;3.17;;;;;;;;;;5056094;28;20040;-77
2022/04/28 20:33:25;;;;;;;5.63;2.92;;;;;;;;;;5055777;28;20188;-77
2022/04/28 20:35:51;;;;;;;4.50;3.08;;;;;;;;;;5056723;28;20055;-76
2022/04/28 20:38:18;;;;;;;4.35;2.47;;;;;;;;;;5058573;28;20083;-76
2022/04/28 20:40:45;;;;;;;3.63;2.60;;;;;;;;;;5058367;28;20056;-76
2022/04/28 20:43:13;;;;;;;4.88;2.70;;;;;;;;;;5056939;28;20139;-76
2022/04/28 20:45:39;;;;;;;4.63;2.72;;;;;;;;;;5055918;28;20041;-77
2022/04/28 20:48:07;;;;;;;4.22;2.58;;;;;;;;;;5057126;28;20080;-77
2022/04/28 20:50:35;;;;;;;4.15;3.10;;;;;;;;;;5057308;28;20048;-76
2022/04/28 20:53:01;;;;;;;5.82;2.90;;;;;;;;;;5054859;28;20058;-76
2022/04/28 20:55:28;;;;;;;4.10;2.75;;;;;;;;;;5055384;28;20571;-77
2022/04/28 20:57:55;;;;;;;3.95;2.67;;;;;;;;;;5053105;28;20053;-78
2022/04/28 21:00:23;;;;;;;4.85;2.90;;;;;;;;;;5054692;28;20106;-77
2022/04/28 21:02:49;;;;;;;3.45;2.30;;;;;;;;;;5054077;28;20613;-77
2022/04/28 21:05:16;;;;;;;5.03;2.72;;;;;;;;;;5054577;28;20041;-76
2022/04/28 21:07:43;;;;;;;4.50;3.08;;;;;;;;;;5056285;28;20055;-78
2022/04/28 21:10:11;;;;;;;4.40;2.60;;;;;;;;;;5055287;28;20052;-76
2022/04/28 21:12:38;;;;;;;5.05;2.85;;;;;;;;;;5053337;28;20044;-76
2022/04/28 21:15:06;;;;;;;6.13;3.40;;;;;;;;;;5057448;28;20069;-76
2022/04/28 21:17:35;;;;;;;4.18;2.83;;;;;;;;;;5056055;28;21409;-76
2022/04/28 21:20:02;;;;;;;4.72;2.90;;;;;;;;;;5056370;28;20047;-76
2022/04/28 21:22:28;;;;;;;5.43;3.17;;;;;;;;;;5055030;28;20103;-76
2022/04/28 21:24:55;;;;;;;5.13;3.17;;;;;;;;;;5053450;28;20101;-76
2022/04/28 21:27:22;;;;;;;5.60;2.78;;;;;;;;;;5053984;28;20056;-76
2022/04/28 21:29:48;;;;;;;4.78;3.03;;;;;;;;;;5056774;28;20072;-76
2022/04/28 21:32:15;;;;;;;5.22;3.35;;;;;;;;;;5057794;28;20084;-76
2022/04/28 21:34:44;;;;;;;7.82;3.15;;;;;;;;;;5057137;28;20045;-76
2022/04/28 21:37:11;;;;;;;5.63;3.28;;;;;;;;;;5053009;28;20492;-76
2022/04/28 21:39:38;;;;;;;5.28;3.65;;;;;;;;;;5054792;28;20745;-76
2022/04/28 21:42:05;;;;;;;5.15;3.00;;;;;;;;;;5058156;28;20086;-76
2022/04/28 21:44:32;;;;;;;5.07;3.30;;;;;;;;;;5054671;28;20137;-77
2022/04/28 21:46:58;;;;;;;4.72;2.78;;;;;;;;;;5057636;28;20576;-76
2022/04/28 21:49:25;;;;;;;4.97;3.20;;;;;;;;;;5055734;28;20126;-76
2022/04/28 21:51:53;;;;;;;6.35;2.80;;;;;;;;;;5057249;28;20071;-76
2022/04/28 21:54:21;;;;;;;8.02;3.33;;;;;;;;;;5054224;28;20814;-76
2022/04/28 21:56:47;;;;;;;4.72;3.38;;;;;;;;;;5054624;28;20052;-76
2022/04/28 21:59:14;;;;;;;4.68;3.15;;;;;;;;;;5049548;28;20080;-76
2022/04/28 22:01:40;;;;;;;4.35;3.08;;;;;;;;;;5052606;28;20181;-76
2022/04/28 22:12:20;;;;;;;4.65;3.53;;;;;;;;;;5047865;28;20060;-77
2022/04/28 22:14:47;;;;;;;5.68;3.55;;;;;;;;;;5035309;28;20544;-76
2022/04/28 22:17:13;;;;;;;4.28;3.10;;;;;;;;;;5043347;28;20045;-77
2022/04/28 22:19:40;;;;;;;5.78;3.67;;;;;;;;;;5045157;28;20081;-76
2022/04/28 22:22:07;;;;;;;5.72;3.30;;;;;;;;;;5050614;28;20072;-76
2022/04/28 22:24:33;;;;;;;4.80;3.35;;;;;;;;;;5050239;28;20426;-77
2022/04/28 22:27:02;;;;;;;5.07;3.20;;;;;;;;;;5047054;28;20083;-77
2022/04/28 22:29:29;;;;;;;4.82;3.45;;;;;;;;;;5046141;28;20041;-76
2022/04/28 22:31:55;;;;;;;5.43;3.38;;;;;;;;;;5044701;28;20081;-77
2022/04/28 22:34:24;;;;;;;4.45;2.58;;;;;;;;;;5041396;28;20079;-76
2022/04/28 22:36:52;;;;;;;5.13;2.90;;;;;;;;;;5047153;28;20055;-76
2022/04/28 22:39:18;;;;;;;6.93;4.47;;;;;;;;;;5048241;28;20056;-76
2022/04/28 22:41:45;;;;;;;5.68;3.20;;;;;;;;;;5047969;28;20163;-76
2022/04/28 22:44:14;;;;;;;7.35;3.72;;;;;;;;;;5046900;28;20442;-76
2022/04/28 22:46:40;;;;;;;5.78;3.90;;;;;;;;;;5047472;28;20068;-76
2022/04/28 22:49:07;;;;;;;5.28;3.35;;;;;;;;;;5049781;28;20080;-76
2022/04/28 22:51:34;;;;;;;6.15;3.25;;;;;;;;;;5048063;28;20052;-77
2022/04/28 22:54:01;;;;;;;4.75;3.63;;;;;;;;;;5048571;28;20453;-76
2022/04/28 22:56:28;;;;;;;4.90;3.35;;;;;;;;;;5049452;28;20543;-76
2022/04/28 22:58:56;;;;;;;6.53;3.55;;;;;;;;;;5052827;28;20048;-77
2022/04/28 23:01:25;;;;;;;5.53;3.88;;;;;;;;;;5052507;28;20041;-76
2022/04/28 23:03:52;;;;;;;5.13;3.75;;;;;;;;;;5052404;28;20398;-76
2022/04/28 23:06:19;;;;;;;5.55;3.60;;;;;;;;;;5053395;28;20128;-76
2022/04/28 23:08:45;;;;;;;6.72;3.40;;;;;;;;;;5051096;28;21169;-76
2022/04/28 23:11:12;;;;;;;6.53;3.40;;;;;;;;;;5050221;28;20088;-76
2022/04/28 23:13:39;;;;;;;5.82;3.95;;;;;;;;;;5052840;28;20045;-76
2022/04/28 23:16:05;;;;;;;9.02;4.10;;;;;;;;;;5050928;28;20099;-77
2022/04/28 23:18:33;;;;;;;4.95;3.55;;;;;;;;;;5040820;28;20073;-76
2022/04/28 23:21:02;;;;;;;5.00;3.53;;;;;;;;;;5052621;28;20072;-76
2022/04/28 23:23:29;;;;;;;5.93;3.92;;;;;;;;;;5052559;28;20420;-76
2022/04/28 23:25:55;;;;;;;9.18;3.95;;;;;;;;;;5052139;28;20103;-76
2022/04/28 23:28:22;;;;;;;6.18;3.38;;;;;;;;;;5053064;28;20081;-75
2022/04/28 23:30:48;;;;;;;5.57;3.70;;;;;;;;;;5051422;28;20072;-76
2022/04/28 23:33:15;;;;;;;5.07;3.70;;;;;;;;;;5053127;28;20156;-76
2022/04/28 23:38:26;;;;;;;6.13;4.20;;;;;;;;;;5052452;28;20068;-75
2022/04/28 23:40:54;;;;;;;6.63;3.83;;;;;;;;;;5051034;28;20080;-77
2022/04/28 23:43:21;;;;;;;7.63;4.38;;;;;;;;;;5053345;28;20083;-76
2022/04/28 23:45:48;;;;;;;6.18;3.88;;;;;;;;;;5050091;28;20099;-76
2022/04/28 23:48:15;;;;;;;5.63;3.97;;;;;;;;;;5052347;28;20699;-76
2022/04/28 23:50:43;;;;;;;7.03;4.32;;;;;;;;;;5052580;28;20570;-75
2022/04/28 23:55:54;;;;;;;6.07;3.65;;;;;;;;;;5044625;28;20417;-76
2022/04/28 23:58:20;;;;;;;6.95;4.00;;;;;;;;;;5050165;28;20072;-76
